sensor_id;sensor_type;location;lat;lon;timestamp;temperature;humidity
44166;DHT22;30476;53.468;9.826;2022-12-24T00:02:19;7.50;99.90
44166;DHT22;30476;53.468;9.826;2022-12-24T00:04:45;7.50;99.90
44166;DHT22;30476;53.468;9.826;2022-12-24T00:07:11;7.50;99.90
44166;DHT22;30476;53.468;9.826;2022-12-24T00:09:37;7.50;99.90
44166;DHT22;30476;53.468;9.826;2022-12-24T00:12:03;7.50;99.90
44166;DHT22;30476;53.468;9.826;2022-12-24T00:14:29;7.50;99.90
44166;DHT22;30476;53.468;9.826;2022-12-24T00:16:55;7.50;99.90
44166;DHT22;30476;53.468;9.826;2022-12-24T00:19:21;7.50;99.90
44166;DHT22;30476;53.468;9.826;2022-12-24T00:21:47;7.50;99.90
44166;DHT22;30476;53.468;9.826;2022-12-24T00:24:13;7.50;99.90
44166;DHT22;30476;53.468;9.826;2022-12-24T00:26:38;7.50;99.90
44166;DHT22;30476;53.468;9.826;2022-12-24T00:29:04;7.50;99.90
44166;DHT22;30476;53.468;9.826;2022-12-24T00:31:30;7.50;99.90
44166;DHT22;30476;53.468;9.826;2022-12-24T00:33:56;7.50;99.90
44166;DHT22;30476;53.468;9.826;2022-12-24T00:36:22;7.50;99.90
44166;DHT22;30476;53.468;9.826;2022-12-24T00:38:48;7.50;99.90
44166;DHT22;30476;53.468;9.826;2022-12-24T00:41:14;7.50;99.90
44166;DHT22;30476;53.468;9.826;2022-12-24T00:44:00;7.50;99.90
44166;DHT22;30476;53.468;9.826;2022-12-24T00:46:28;7.50;99.90
44166;DHT22;30476;53.468;9.826;2022-12-24T00:48:54;7.50;99.90
44166;DHT22;30476;53.468;9.826;2022-12-24T00:51:21;7.50;99.90
44166;DHT22;30476;53.468;9.826;2022-12-24T00:53:48;7.50;99.90
44166;DHT22;30476;53.468;9.826;2022-12-24T00:56:14;7.50;99.90
44166;DHT22;30476;53.468;9.826;2022-12-24T00:58:40;7.50;99.90
44166;DHT22;30476;53.468;9.826;2022-12-24T01:01:06;7.50;99.90
44166;DHT22;30476;53.468;9.826;2022-12-24T01:03:32;7.50;99.90
44166;DHT22;30476;53.468;9.826;2022-12-24T01:06:07;7.50;99.90
44166;DHT22;30476;53.468;9.826;2022-12-24T01:08:34;7.50;99.90
44166;DHT22;30476;53.468;9.826;2022-12-24T01:11:01;7.50;99.90
44166;DHT22;30476;53.468;9.826;2022-12-24T01:13:27;7.50;99.90
44166;DHT22;30476;53.468;9.826;2022-12-24T01:15:53;7.50;99.90
44166;DHT22;30476;53.468;9.826;2022-12-24T01:18:18;7.50;99.90
44166;DHT22;30476;53.468;9.826;2022-12-24T01:20:44;7.50;99.90
44166;DHT22;30476;53.468;9.826;2022-12-24T01:23:10;7.50;99.90
44166;DHT22;30476;53.468;9.826;2022-12-24T01:25:37;7.50;99.90
44166;DHT22;30476;53.468;9.826;2022-12-24T01:28:04;7.50;99.90
44166;DHT22;30476;53.468;9.826;2022-12-24T01:30:30;7.50;99.90
44166;DHT22;30476;53.468;9.826;2022-12-24T01:32:57;7.50;99.90
44166;DHT22;30476;53.468;9.826;2022-12-24T01:35:23;7.50;99.90
44166;DHT22;30476;53.468;9.826;2022-12-24T01:37:48;7.50;99.90
44166;DHT22;30476;53.468;9.826;2022-12-24T01:40:16;7.50;99.90
44166;DHT22;30476;53.468;9.826;2022-12-24T01:43:01;7.50;99.90
44166;DHT22;30476;53.468;9.826;2022-12-24T01:45:59;7.50;99.90
44166;DHT22;30476;53.468;9.826;2022-12-24T01:48:50;7.50;99.90
44166;DHT22;30476;53.468;9.826;2022-12-24T01:51:32;7.50;99.90
44166;DHT22;30476;53.468;9.826;2022-12-24T01:54:05;7.50;99.90
44166;DHT22;30476;53.468;9.826;2022-12-24T01:56:34;7.50;99.90
44166;DHT22;30476;53.468;9.826;2022-12-24T01:59:05;7.40;99.90
44166;DHT22;30476;53.468;9.826;2022-12-24T02:01:32;7.40;99.90
44166;DHT22;30476;53.468;9.826;2022-12-24T02:03:58;7.40;99.90
44166;DHT22;30476;53.468;9.826;2022-12-24T02:06:25;7.40;99.90
44166;DHT22;30476;53.468;9.826;2022-12-24T02:08:51;7.40;99.90
44166;DHT22;30476;53.468;9.826;2022-12-24T02:11:19;7.40;99.90
44166;DHT22;30476;53.468;9.826;2022-12-24T02:13:49;7.40;99.90
44166;DHT22;30476;53.468;9.826;2022-12-24T02:16:34;7.40;99.90
44166;DHT22;30476;53.468;9.826;2022-12-24T02:22:15;7.40;99.90
44166;DHT22;30476;53.468;9.826;2022-12-24T02:25:09;7.40;99.90
44166;DHT22;30476;53.468;9.826;2022-12-24T02:27:41;7.40;99.90
44166;DHT22;30476;53.468;9.826;2022-12-24T02:30:25;7.30;99.90
44166;DHT22;30476;53.468;9.826;2022-12-24T02:33:03;7.30;99.90
44166;DHT22;30476;53.468;9.826;2022-12-24T02:35:47;7.30;99.90
44166;DHT22;30476;53.468;9.826;2022-12-24T02:38:19;7.30;99.90
44166;DHT22;30476;53.468;9.826;2022-12-24T02:40:57;7.30;99.90
44166;DHT22;30476;53.468;9.826;2022-12-24T02:43:28;7.20;99.90
44166;DHT22;30476;53.468;9.826;2022-12-24T02:46:00;7.30;99.90
44166;DHT22;30476;53.468;9.826;2022-12-24T02:48:27;7.20;99.90
44166;DHT22;30476;53.468;9.826;2022-12-24T02:50:56;7.20;99.90
44166;DHT22;30476;53.468;9.826;2022-12-24T02:53:22;7.20;99.90
44166;DHT22;30476;53.468;9.826;2022-12-24T02:56:17;7.20;99.90
44166;DHT22;30476;53.468;9.826;2022-12-24T02:59:07;7.20;99.90
44166;DHT22;30476;53.468;9.826;2022-12-24T03:01:44;7.20;99.90
44166;DHT22;30476;53.468;9.826;2022-12-24T03:04:35;7.20;99.90
44166;DHT22;30476;53.468;9.826;2022-12-24T03:07:18;7.20;99.90
44166;DHT22;30476;53.468;9.826;2022-12-24T03:10:17;7.20;99.90
44166;DHT22;30476;53.468;9.826;2022-12-24T03:12:55;7.20;99.90
44166;DHT22;30476;53.468;9.826;2022-12-24T03:15:25;7.30;99.90
44166;DHT22;30476;53.468;9.826;2022-12-24T03:17:54;7.20;99.90
44166;DHT22;30476;53.468;9.826;2022-12-24T03:20:30;7.20;99.90
44166;DHT22;30476;53.468;9.826;2022-12-24T03:22:57;7.10;99.90
44166;DHT22;30476;53.468;9.826;2022-12-24T03:25:24;7.10;99.90
44166;DHT22;30476;53.468;9.826;2022-12-24T03:27:51;7.20;99.90
44166;DHT22;30476;53.468;9.826;2022-12-24T03:30:17;7.20;99.90
44166;DHT22;30476;53.468;9.826;2022-12-24T03:32:43;7.20;99.90
44166;DHT22;30476;53.468;9.826;2022-12-24T03:35:11;7.20;99.90
44166;DHT22;30476;53.468;9.826;2022-12-24T03:37:36;7.20;99.90
44166;DHT22;30476;53.468;9.826;2022-12-24T03:40:04;7.20;99.90
44166;DHT22;30476;53.468;9.826;2022-12-24T03:42:30;7.20;99.90
44166;DHT22;30476;53.468;9.826;2022-12-24T03:44:56;7.20;99.90
44166;DHT22;30476;53.468;9.826;2022-12-24T03:47:22;7.20;99.90
44166;DHT22;30476;53.468;9.826;2022-12-24T03:49:47;7.20;99.90
44166;DHT22;30476;53.468;9.826;2022-12-24T03:52:13;7.20;99.90
44166;DHT22;30476;53.468;9.826;2022-12-24T03:54:39;7.20;99.90
44166;DHT22;30476;53.468;9.826;2022-12-24T03:57:05;7.20;99.90
44166;DHT22;30476;53.468;9.826;2022-12-24T03:59:31;7.20;99.90
44166;DHT22;30476;53.468;9.826;2022-12-24T04:01:57;7.20;99.90
44166;DHT22;30476;53.468;9.826;2022-12-24T04:04:23;7.20;99.90
44166;DHT22;30476;53.468;9.826;2022-12-24T04:06:49;7.20;99.90
44166;DHT22;30476;53.468;9.826;2022-12-24T04:09:15;7.20;99.90
44166;DHT22;30476;53.468;9.826;2022-12-24T04:11:40;7.20;99.90
44166;DHT22;30476;53.468;9.826;2022-12-24T04:14:06;7.20;99.90
44166;DHT22;30476;53.468;9.826;2022-12-24T04:16:32;7.20;99.90
44166;DHT22;30476;53.468;9.826;2022-12-24T04:18:58;7.20;99.90
44166;DHT22;30476;53.468;9.826;2022-12-24T04:21:29;7.20;99.90
44166;DHT22;30476;53.468;9.826;2022-12-24T04:23:55;7.20;99.90
44166;DHT22;30476;53.468;9.826;2022-12-24T04:26:21;7.20;99.90
44166;DHT22;30476;53.468;9.826;2022-12-24T04:28:47;7.20;99.90
44166;DHT22;30476;53.468;9.826;2022-12-24T04:31:15;7.10;99.90
44166;DHT22;30476;53.468;9.826;2022-12-24T04:33:41;7.10;99.90
44166;DHT22;30476;53.468;9.826;2022-12-24T04:36:07;7.10;99.90
44166;DHT22;30476;53.468;9.826;2022-12-24T04:38:35;7.20;99.90
44166;DHT22;30476;53.468;9.826;2022-12-24T04:41:04;7.10;99.90
44166;DHT22;30476;53.468;9.826;2022-12-24T04:43:30;7.20;99.90
44166;DHT22;30476;53.468;9.826;2022-12-24T04:46:04;7.20;99.90
44166;DHT22;30476;53.468;9.826;2022-12-24T04:48:29;7.20;99.90
44166;DHT22;30476;53.468;9.826;2022-12-24T04:50:55;7.20;99.90
44166;DHT22;30476;53.468;9.826;2022-12-24T04:53:21;7.20;99.90
44166;DHT22;30476;53.468;9.826;2022-12-24T04:55:47;7.20;99.90
44166;DHT22;30476;53.468;9.826;2022-12-24T04:58:13;7.10;99.90
44166;DHT22;30476;53.468;9.826;2022-12-24T05:00:39;7.10;99.90
44166;DHT22;30476;53.468;9.826;2022-12-24T05:03:05;7.10;99.90
44166;DHT22;30476;53.468;9.826;2022-12-24T05:05:31;7.10;99.90
44166;DHT22;30476;53.468;9.826;2022-12-24T05:07:57;7.00;99.90
44166;DHT22;30476;53.468;9.826;2022-12-24T05:10:23;7.00;99.90
44166;DHT22;30476;53.468;9.826;2022-12-24T05:12:48;7.10;99.90
44166;DHT22;30476;53.468;9.826;2022-12-24T05:15:14;7.10;99.90
44166;DHT22;30476;53.468;9.826;2022-12-24T05:17:40;7.00;99.90
44166;DHT22;30476;53.468;9.826;2022-12-24T05:20:06;7.10;99.90
44166;DHT22;30476;53.468;9.826;2022-12-24T05:22:32;7.10;99.90
44166;DHT22;30476;53.468;9.826;2022-12-24T05:25:17;7.10;99.90
44166;DHT22;30476;53.468;9.826;2022-12-24T05:28:01;7.10;99.90
44166;DHT22;30476;53.468;9.826;2022-12-24T05:30:27;7.10;99.90
44166;DHT22;30476;53.468;9.826;2022-12-24T05:32:53;7.10;99.90
44166;DHT22;30476;53.468;9.826;2022-12-24T05:35:19;7.10;99.90
44166;DHT22;30476;53.468;9.826;2022-12-24T05:37:45;7.10;99.90
44166;DHT22;30476;53.468;9.826;2022-12-24T05:40:10;7.10;99.90
44166;DHT22;30476;53.468;9.826;2022-12-24T05:42:36;7.10;99.90
44166;DHT22;30476;53.468;9.826;2022-12-24T05:45:02;7.10;99.90
44166;DHT22;30476;53.468;9.826;2022-12-24T05:47:28;7.10;99.90
44166;DHT22;30476;53.468;9.826;2022-12-24T05:49:54;7.10;99.90
44166;DHT22;30476;53.468;9.826;2022-12-24T05:52:20;7.10;99.90
44166;DHT22;30476;53.468;9.826;2022-12-24T05:54:46;7.10;99.90
44166;DHT22;30476;53.468;9.826;2022-12-24T05:57:12;7.10;99.90
44166;DHT22;30476;53.468;9.826;2022-12-24T05:59:38;7.10;99.90
44166;DHT22;30476;53.468;9.826;2022-12-24T06:02:03;7.10;99.90
44166;DHT22;30476;53.468;9.826;2022-12-24T06:04:29;7.20;99.90
44166;DHT22;30476;53.468;9.826;2022-12-24T06:06:55;7.20;99.90
44166;DHT22;30476;53.468;9.826;2022-12-24T06:09:21;7.10;99.90
44166;DHT22;30476;53.468;9.826;2022-12-24T06:11:46;7.20;99.90
44166;DHT22;30476;53.468;9.826;2022-12-24T06:14:12;7.20;99.90
44166;DHT22;30476;53.468;9.826;2022-12-24T06:16:38;7.20;99.90
44166;DHT22;30476;53.468;9.826;2022-12-24T06:19:04;7.20;99.90
44166;DHT22;30476;53.468;9.826;2022-12-24T06:21:30;7.20;99.90
44166;DHT22;30476;53.468;9.826;2022-12-24T06:23:55;7.20;99.90
44166;DHT22;30476;53.468;9.826;2022-12-24T06:26:22;7.20;99.90
44166;DHT22;30476;53.468;9.826;2022-12-24T06:28:49;7.20;99.90
44166;DHT22;30476;53.468;9.826;2022-12-24T06:31:18;7.20;99.90
44166;DHT22;30476;53.468;9.826;2022-12-24T06:33:44;7.20;99.90
44166;DHT22;30476;53.468;9.826;2022-12-24T06:36:19;7.20;99.90
44166;DHT22;30476;53.468;9.826;2022-12-24T06:38:46;7.20;99.90
44166;DHT22;30476;53.468;9.826;2022-12-24T06:41:12;7.20;99.90
44166;DHT22;30476;53.468;9.826;2022-12-24T06:43:37;7.20;99.90
44166;DHT22;30476;53.468;9.826;2022-12-24T06:46:03;7.20;99.90
44166;DHT22;30476;53.468;9.826;2022-12-24T06:48:29;7.20;99.90
44166;DHT22;30476;53.468;9.826;2022-12-24T06:50:55;7.20;99.90
44166;DHT22;30476;53.468;9.826;2022-12-24T06:53:21;7.20;99.90
44166;DHT22;30476;53.468;9.826;2022-12-24T06:55:47;7.20;99.90
44166;DHT22;30476;53.468;9.826;2022-12-24T06:58:13;7.20;99.90
44166;DHT22;30476;53.468;9.826;2022-12-24T07:00:39;7.20;99.90
44166;DHT22;30476;53.468;9.826;2022-12-24T07:03:05;7.20;99.90
44166;DHT22;30476;53.468;9.826;2022-12-24T07:05:30;7.20;99.90
44166;DHT22;30476;53.468;9.826;2022-12-24T07:07:56;7.20;99.90
44166;DHT22;30476;53.468;9.826;2022-12-24T07:10:22;7.10;99.90
44166;DHT22;30476;53.468;9.826;2022-12-24T07:12:48;7.20;99.90
44166;DHT22;30476;53.468;9.826;2022-12-24T07:15:14;7.20;99.90
44166;DHT22;30476;53.468;9.826;2022-12-24T07:17:41;7.20;99.90
44166;DHT22;30476;53.468;9.826;2022-12-24T07:20:09;7.20;99.90
44166;DHT22;30476;53.468;9.826;2022-12-24T07:22:36;7.20;99.90
44166;DHT22;30476;53.468;9.826;2022-12-24T07:25:02;7.20;99.90
44166;DHT22;30476;53.468;9.826;2022-12-24T07:27:28;7.20;99.90
44166;DHT22;30476;53.468;9.826;2022-12-24T07:29:54;7.20;99.90
44166;DHT22;30476;53.468;9.826;2022-12-24T07:32:20;7.20;99.90
44166;DHT22;30476;53.468;9.826;2022-12-24T07:34:46;7.20;99.90
44166;DHT22;30476;53.468;9.826;2022-12-24T07:37:12;7.20;99.90
44166;DHT22;30476;53.468;9.826;2022-12-24T07:39:38;7.20;99.90
44166;DHT22;30476;53.468;9.826;2022-12-24T07:42:04;7.20;99.90
44166;DHT22;30476;53.468;9.826;2022-12-24T07:44:32;7.20;99.90
44166;DHT22;30476;53.468;9.826;2022-12-24T07:46:58;7.20;99.90
44166;DHT22;30476;53.468;9.826;2022-12-24T07:49:24;7.20;99.90
44166;DHT22;30476;53.468;9.826;2022-12-24T07:51:50;7.20;99.90
44166;DHT22;30476;53.468;9.826;2022-12-24T07:54:16;7.20;99.90
44166;DHT22;30476;53.468;9.826;2022-12-24T07:56:42;7.20;99.90
44166;DHT22;30476;53.468;9.826;2022-12-24T07:59:11;7.20;99.90
44166;DHT22;30476;53.468;9.826;2022-12-24T08:01:37;7.20;99.90
44166;DHT22;30476;53.468;9.826;2022-12-24T08:04:03;7.20;99.90
44166;DHT22;30476;53.468;9.826;2022-12-24T08:06:29;7.20;99.90
44166;DHT22;30476;53.468;9.826;2022-12-24T08:08:55;7.20;99.90
44166;DHT22;30476;53.468;9.826;2022-12-24T08:11:20;7.20;99.90
44166;DHT22;30476;53.468;9.826;2022-12-24T08:13:46;7.20;99.90
44166;DHT22;30476;53.468;9.826;2022-12-24T08:16:12;7.20;99.90
44166;DHT22;30476;53.468;9.826;2022-12-24T08:18:38;7.20;99.90
44166;DHT22;30476;53.468;9.826;2022-12-24T08:21:06;7.20;99.90
44166;DHT22;30476;53.468;9.826;2022-12-24T08:23:33;7.20;99.90
44166;DHT22;30476;53.468;9.826;2022-12-24T08:25:59;7.20;99.90
44166;DHT22;30476;53.468;9.826;2022-12-24T08:28:25;7.20;99.90
44166;DHT22;30476;53.468;9.826;2022-12-24T08:30:51;7.30;99.90
44166;DHT22;30476;53.468;9.826;2022-12-24T08:33:18;7.30;99.90
44166;DHT22;30476;53.468;9.826;2022-12-24T08:35:49;7.30;99.90
44166;DHT22;30476;53.468;9.826;2022-12-24T08:38:15;7.20;99.90
44166;DHT22;30476;53.468;9.826;2022-12-24T08:40:42;7.30;99.90
44166;DHT22;30476;53.468;9.826;2022-12-24T08:43:08;7.30;99.90
44166;DHT22;30476;53.468;9.826;2022-12-24T08:45:34;7.30;99.90
44166;DHT22;30476;53.468;9.826;2022-12-24T08:48:00;7.30;99.90
44166;DHT22;30476;53.468;9.826;2022-12-24T08:50:26;7.30;99.90
44166;DHT22;30476;53.468;9.826;2022-12-24T08:52:53;7.30;99.90
44166;DHT22;30476;53.468;9.826;2022-12-24T08:55:18;7.30;99.90
44166;DHT22;30476;53.468;9.826;2022-12-24T08:57:44;7.30;99.90
44166;DHT22;30476;53.468;9.826;2022-12-24T09:00:11;7.30;99.90
44166;DHT22;30476;53.468;9.826;2022-12-24T09:02:37;7.40;99.90
44166;DHT22;30476;53.468;9.826;2022-12-24T09:05:03;7.40;99.90
44166;DHT22;30476;53.468;9.826;2022-12-24T09:07:29;7.40;99.90
44166;DHT22;30476;53.468;9.826;2022-12-24T09:09:55;7.40;99.90
44166;DHT22;30476;53.468;9.826;2022-12-24T09:12:21;7.40;99.90
44166;DHT22;30476;53.468;9.826;2022-12-24T09:14:47;7.50;99.90
44166;DHT22;30476;53.468;9.826;2022-12-24T09:17:14;7.60;99.90
44166;DHT22;30476;53.468;9.826;2022-12-24T09:19:40;7.70;99.90
44166;DHT22;30476;53.468;9.826;2022-12-24T09:22:06;7.80;99.90
44166;DHT22;30476;53.468;9.826;2022-12-24T09:24:31;7.90;99.90
44166;DHT22;30476;53.468;9.826;2022-12-24T09:26:57;8.00;99.90
44166;DHT22;30476;53.468;9.826;2022-12-24T09:29:24;8.00;99.90
44166;DHT22;30476;53.468;9.826;2022-12-24T09:31:49;8.00;99.90
44166;DHT22;30476;53.468;9.826;2022-12-24T09:34:15;8.00;99.90
44166;DHT22;30476;53.468;9.826;2022-12-24T09:36:41;8.00;99.90
44166;DHT22;30476;53.468;9.826;2022-12-24T09:39:07;8.00;99.90
44166;DHT22;30476;53.468;9.826;2022-12-24T09:42:02;8.00;99.90
44166;DHT22;30476;53.468;9.826;2022-12-24T09:44:41;7.90;99.90
44166;DHT22;30476;53.468;9.826;2022-12-24T09:47:24;8.00;99.90
44166;DHT22;30476;53.468;9.826;2022-12-24T09:49:54;7.90;99.90
44166;DHT22;30476;53.468;9.826;2022-12-24T09:52:28;7.90;99.90
44166;DHT22;30476;53.468;9.826;2022-12-24T09:55:22;7.80;99.90
44166;DHT22;30476;53.468;9.826;2022-12-24T09:57:52;7.80;99.90
44166;DHT22;30476;53.468;9.826;2022-12-24T10:00:26;7.80;99.90
44166;DHT22;30476;53.468;9.826;2022-12-24T10:02:53;7.80;99.90
44166;DHT22;30476;53.468;9.826;2022-12-24T10:05:30;7.80;99.90
44166;DHT22;30476;53.468;9.826;2022-12-24T10:08:18;7.80;99.90
44166;DHT22;30476;53.468;9.826;2022-12-24T10:10:54;7.80;99.90
44166;DHT22;30476;53.468;9.826;2022-12-24T10:14:10;7.70;99.90
44166;DHT22;30476;53.468;9.826;2022-12-24T10:28:27;7.80;99.90
44166;DHT22;30476;53.468;9.826;2022-12-24T10:31:01;7.70;99.90
44166;DHT22;30476;53.468;9.826;2022-12-24T10:33:33;7.80;99.90
44166;DHT22;30476;53.468;9.826;2022-12-24T10:36:01;7.80;99.90
44166;DHT22;30476;53.468;9.826;2022-12-24T10:38:27;7.80;99.90
44166;DHT22;30476;53.468;9.826;2022-12-24T10:40:54;7.80;99.90
44166;DHT22;30476;53.468;9.826;2022-12-24T10:43:23;7.80;99.90
44166;DHT22;30476;53.468;9.826;2022-12-24T10:46:01;7.80;99.90
44166;DHT22;30476;53.468;9.826;2022-12-24T10:49:12;7.80;99.90
44166;DHT22;30476;53.468;9.826;2022-12-24T10:51:24;7.80;99.90
44166;DHT22;30476;53.468;9.826;2022-12-24T10:54:05;7.90;99.90
44166;DHT22;30476;53.468;9.826;2022-12-24T10:56:31;7.90;99.90
44166;DHT22;30476;53.468;9.826;2022-12-24T10:59:03;7.90;99.90
44166;DHT22;30476;53.468;9.826;2022-12-24T11:01:43;7.90;99.90
44166;DHT22;30476;53.468;9.826;2022-12-24T11:04:23;8.00;99.90
44166;DHT22;30476;53.468;9.826;2022-12-24T11:06:54;8.00;99.90
44166;DHT22;30476;53.468;9.826;2022-12-24T11:09:24;8.00;99.90
44166;DHT22;30476;53.468;9.826;2022-12-24T11:11:50;8.00;99.90
44166;DHT22;30476;53.468;9.826;2022-12-24T11:14:17;8.10;99.90
44166;DHT22;30476;53.468;9.826;2022-12-24T11:16:53;8.20;99.90
44166;DHT22;30476;53.468;9.826;2022-12-24T11:19:29;8.20;99.90
44166;DHT22;30476;53.468;9.826;2022-12-24T11:22:07;8.20;99.90
44166;DHT22;30476;53.468;9.826;2022-12-24T11:24:42;8.30;99.90
44166;DHT22;30476;53.468;9.826;2022-12-24T11:32:48;8.40;99.90
44166;DHT22;30476;53.468;9.826;2022-12-24T11:35:21;8.50;99.90
44166;DHT22;30476;53.468;9.826;2022-12-24T11:40:30;8.70;99.90
44166;DHT22;30476;53.468;9.826;2022-12-24T11:43:02;8.70;99.90
44166;DHT22;30476;53.468;9.826;2022-12-24T11:45:30;8.80;99.90
44166;DHT22;30476;53.468;9.826;2022-12-24T11:47:58;8.90;99.90
44166;DHT22;30476;53.468;9.826;2022-12-24T11:50:29;9.00;99.90
44166;DHT22;30476;53.468;9.826;2022-12-24T11:55:32;9.10;99.90
44166;DHT22;30476;53.468;9.826;2022-12-24T12:01:40;9.20;99.90
44166;DHT22;30476;53.468;9.826;2022-12-24T12:04:14;9.30;99.90
44166;DHT22;30476;53.468;9.826;2022-12-24T12:06:48;9.30;99.90
44166;DHT22;30476;53.468;9.826;2022-12-24T12:09:37;9.30;99.90
44166;DHT22;30476;53.468;9.826;2022-12-24T12:12:08;9.40;99.90
44166;DHT22;30476;53.468;9.826;2022-12-24T12:14:38;9.40;99.90
44166;DHT22;30476;53.468;9.826;2022-12-24T12:20:26;9.40;99.90
44166;DHT22;30476;53.468;9.826;2022-12-24T12:22:59;9.50;99.90
44166;DHT22;30476;53.468;9.826;2022-12-24T12:28:06;9.60;99.90
44166;DHT22;30476;53.468;9.826;2022-12-24T12:30:34;9.60;99.90
44166;DHT22;30476;53.468;9.826;2022-12-24T12:33:03;9.70;99.90
44166;DHT22;30476;53.468;9.826;2022-12-24T12:35:36;9.80;99.90
44166;DHT22;30476;53.468;9.826;2022-12-24T12:38:08;9.80;99.90
44166;DHT22;30476;53.468;9.826;2022-12-24T12:49:21;10.10;99.90
44166;DHT22;30476;53.468;9.826;2022-12-24T12:54:58;10.10;99.90
44166;DHT22;30476;53.468;9.826;2022-12-24T12:57:29;10.20;99.90
44166;DHT22;30476;53.468;9.826;2022-12-24T13:00:06;10.20;99.90
44166;DHT22;30476;53.468;9.826;2022-12-24T13:02:41;10.30;99.90
44166;DHT22;30476;53.468;9.826;2022-12-24T13:05:39;10.30;99.90
44166;DHT22;30476;53.468;9.826;2022-12-24T13:19:35;10.20;99.90
44166;DHT22;30476;53.468;9.826;2022-12-24T13:22:14;10.20;99.90
44166;DHT22;30476;53.468;9.826;2022-12-24T13:24:47;10.20;99.90
44166;DHT22;30476;53.468;9.826;2022-12-24T13:27:28;10.20;99.90
44166;DHT22;30476;53.468;9.826;2022-12-24T13:30:30;10.10;99.90
44166;DHT22;30476;53.468;9.826;2022-12-24T13:32:51;10.10;99.90
44166;DHT22;30476;53.468;9.826;2022-12-24T13:37:50;10.10;99.90
44166;DHT22;30476;53.468;9.826;2022-12-24T13:40:22;10.10;99.90
44166;DHT22;30476;53.468;9.826;2022-12-24T13:48:02;10.10;99.90
44166;DHT22;30476;53.468;9.826;2022-12-24T13:50:53;10.10;99.90
44166;DHT22;30476;53.468;9.826;2022-12-24T13:53:29;10.20;99.90
44166;DHT22;30476;53.468;9.826;2022-12-24T13:56:22;10.20;99.90
44166;DHT22;30476;53.468;9.826;2022-12-24T13:58:54;10.20;99.90
44166;DHT22;30476;53.468;9.826;2022-12-24T14:01:35;10.20;99.90
44166;DHT22;30476;53.468;9.826;2022-12-24T14:04:04;10.20;99.90
44166;DHT22;30476;53.468;9.826;2022-12-24T14:06:38;10.30;99.90
44166;DHT22;30476;53.468;9.826;2022-12-24T14:09:08;10.30;99.90
44166;DHT22;30476;53.468;9.826;2022-12-24T14:14:39;10.20;99.90
44166;DHT22;30476;53.468;9.826;2022-12-24T14:19:53;10.20;99.90
44166;DHT22;30476;53.468;9.826;2022-12-24T14:22:43;10.30;99.90
44166;DHT22;30476;53.468;9.826;2022-12-24T14:25:15;10.30;99.90
44166;DHT22;30476;53.468;9.826;2022-12-24T14:30:44;10.30;99.90
44166;DHT22;30476;53.468;9.826;2022-12-24T14:33:30;10.30;99.90
44166;DHT22;30476;53.468;9.826;2022-12-24T14:35:56;10.30;99.90
44166;DHT22;30476;53.468;9.826;2022-12-24T14:38:22;10.30;99.90
44166;DHT22;30476;53.468;9.826;2022-12-24T14:43:49;10.30;99.90
44166;DHT22;30476;53.468;9.826;2022-12-24T14:46:23;10.30;99.90
44166;DHT22;30476;53.468;9.826;2022-12-24T14:52:05;10.20;99.90
44166;DHT22;30476;53.468;9.826;2022-12-24T14:54:37;10.20;99.90
44166;DHT22;30476;53.468;9.826;2022-12-24T15:05:23;10.10;99.90
44166;DHT22;30476;53.468;9.826;2022-12-24T15:08:00;10.00;99.90
44166;DHT22;30476;53.468;9.826;2022-12-24T15:10:32;10.00;99.90
44166;DHT22;30476;53.468;9.826;2022-12-24T15:15:33;9.90;99.90
44166;DHT22;30476;53.468;9.826;2022-12-24T15:18:01;10.00;99.90
44166;DHT22;30476;53.468;9.826;2022-12-24T15:20:28;10.00;99.90
44166;DHT22;30476;53.468;9.826;2022-12-24T15:22:57;10.00;99.90
44166;DHT22;30476;53.468;9.826;2022-12-24T15:25:31;10.00;99.90
44166;DHT22;30476;53.468;9.826;2022-12-24T15:27:57;10.00;99.90
44166;DHT22;30476;53.468;9.826;2022-12-24T15:30:26;10.00;99.90
44166;DHT22;30476;53.468;9.826;2022-12-24T15:32:53;9.90;99.90
44166;DHT22;30476;53.468;9.826;2022-12-24T15:35:43;9.90;99.90
44166;DHT22;30476;53.468;9.826;2022-12-24T15:38:34;10.00;99.90
44166;DHT22;30476;53.468;9.826;2022-12-24T15:41:14;10.00;99.90
44166;DHT22;30476;53.468;9.826;2022-12-24T15:43:42;10.00;99.90
44166;DHT22;30476;53.468;9.826;2022-12-24T15:46:09;10.00;99.90
44166;DHT22;30476;53.468;9.826;2022-12-24T15:48:35;10.00;99.90
44166;DHT22;30476;53.468;9.826;2022-12-24T15:51:03;10.00;99.90
44166;DHT22;30476;53.468;9.826;2022-12-24T15:53:33;10.00;99.90
44166;DHT22;30476;53.468;9.826;2022-12-24T15:56:34;10.00;99.90
44166;DHT22;30476;53.468;9.826;2022-12-24T15:59:31;10.00;99.90
44166;DHT22;30476;53.468;9.826;2022-12-24T16:02:32;10.10;99.90
44166;DHT22;30476;53.468;9.826;2022-12-24T16:05:32;10.00;99.90
44166;DHT22;30476;53.468;9.826;2022-12-24T16:08:23;10.00;99.90
44166;DHT22;30476;53.468;9.826;2022-12-24T16:11:08;10.00;99.90
44166;DHT22;30476;53.468;9.826;2022-12-24T16:13:40;10.10;99.90
44166;DHT22;30476;53.468;9.826;2022-12-24T16:16:14;10.00;99.90
44166;DHT22;30476;53.468;9.826;2022-12-24T16:18:54;10.00;99.90
44166;DHT22;30476;53.468;9.826;2022-12-24T16:21:31;10.00;99.90
44166;DHT22;30476;53.468;9.826;2022-12-24T16:24:14;10.00;99.90
44166;DHT22;30476;53.468;9.826;2022-12-24T16:26:40;9.90;99.90
44166;DHT22;30476;53.468;9.826;2022-12-24T16:29:06;10.00;99.90
44166;DHT22;30476;53.468;9.826;2022-12-24T16:31:36;10.00;99.90
44166;DHT22;30476;53.468;9.826;2022-12-24T16:34:04;10.00;99.90
44166;DHT22;30476;53.468;9.826;2022-12-24T16:36:30;10.00;99.90
44166;DHT22;30476;53.468;9.826;2022-12-24T16:38:59;10.00;99.90
44166;DHT22;30476;53.468;9.826;2022-12-24T16:41:43;10.00;99.90
44166;DHT22;30476;53.468;9.826;2022-12-24T16:44:28;10.00;99.90
44166;DHT22;30476;53.468;9.826;2022-12-24T16:46:55;10.00;99.90
44166;DHT22;30476;53.468;9.826;2022-12-24T16:49:22;10.00;99.90
44166;DHT22;30476;53.468;9.826;2022-12-24T16:51:48;10.00;99.90
44166;DHT22;30476;53.468;9.826;2022-12-24T16:54:14;10.00;99.90
44166;DHT22;30476;53.468;9.826;2022-12-24T16:56:41;10.00;99.90
44166;DHT22;30476;53.468;9.826;2022-12-24T16:59:19;10.00;99.90
44166;DHT22;30476;53.468;9.826;2022-12-24T17:01:45;10.00;99.90
44166;DHT22;30476;53.468;9.826;2022-12-24T17:04:12;10.00;99.90
44166;DHT22;30476;53.468;9.826;2022-12-24T17:06:38;10.00;99.90
44166;DHT22;30476;53.468;9.826;2022-12-24T17:09:04;10.00;99.90
44166;DHT22;30476;53.468;9.826;2022-12-24T17:11:30;10.10;99.90
44166;DHT22;30476;53.468;9.826;2022-12-24T17:13:56;10.10;99.90
44166;DHT22;30476;53.468;9.826;2022-12-24T17:16:22;10.00;99.90
44166;DHT22;30476;53.468;9.826;2022-12-24T17:18:48;10.10;99.90
44166;DHT22;30476;53.468;9.826;2022-12-24T17:21:15;10.10;99.90
44166;DHT22;30476;53.468;9.826;2022-12-24T17:23:41;10.20;99.90
44166;DHT22;30476;53.468;9.826;2022-12-24T17:26:09;10.20;99.90
44166;DHT22;30476;53.468;9.826;2022-12-24T17:28:36;10.10;99.90
44166;DHT22;30476;53.468;9.826;2022-12-24T17:31:09;10.20;99.90
44166;DHT22;30476;53.468;9.826;2022-12-24T17:33:35;10.20;99.90
44166;DHT22;30476;53.468;9.826;2022-12-24T17:36:01;10.20;99.90